Terminal Aerodrome Forecast
Issued by NWS

Home | Current Version | Previous Version | Text Only | Print | Product List | Glossary On
Versions: 1 2 3 4 5 6 7 8 9 10 11 12 13
000
FTUS41 KBTV 261730
TAFSLK
TAF
KSLK 261730Z 2618/2718 35004KT P6SM BKN035
     FM270400 00000KT P6SM VCSH OVC020
     FM270700 00000KT 6SM BR VCSH OVC010
     FM271100 33005KT 3SM -SHRASN OVC008
     FM271300 34006KT 5SM -SHRA OVC015
     FM271500 35006KT P6SM -SHRA OVC025=

USA.gov is the U.S. government's official web portal to all federal, state and local government web resources and services.